NZOH/OHA METAR and TAF weather

Enter ICAO airport designator
Station Type Date Time Source
NZOH METAR 2019/07/09 04:00 UTC NOAA

NZOH 090400Z 28010KT 20KM -SHRA SCT020 BKN030 12/10 Q1010 BECMG BKN020


Station Type Date Time Source
NZOH Decoded METAR 2019/07/09 04:00 UTC NOAA

Ohakea, New Zealand (NZOH) 40-12S 175-22E 52M
Jul 09, 2019 - 12:00 AM EDT / 2019.07.09 0400 UTC
Wind: from the W (280 degrees) at 12 MPH (10 KT):0
Sky conditions: mostly cloudy
Weather: light rain showers
Temperature: 53 F (12 C)
Dew Point: 50 F (10 C)
Relative Humidity: 87%
Pressure (altimeter): 29.83 in. Hg (1010 hPa)
ob: NZOH 090400Z 28010KT 20KM -SHRA SCT020 BKN030 12/10 Q1010 BECMG BKN020
cycle: 4

Station Type Date Time Source
NZOH TAF 2007/12/14 04:59 UTC NOAA

TAF NZOH 140459Z 140606 11020KT 30KM SCT080 BECMH 0911 03008KT
BECMG 2224 27012KT

Example: see airport list